Notl Queenston

*Note: All times are displayed in the local standard time of the station location.
**Rain - Equipment is designed to accurately record liquid precipitation; under conditions when precipitation is not in liquid form, the data displayed may not properly reflect rainfall values.

Date Max Temp
(°C)
Min Temp
(°C)
Avg Temp
(°C)
Rain (mm) Avg RH (%) Solar Rad (kJ/m2)
Fri, Dec 14, 2018 7.0 2.1 4.2 1.2 81.5 1097.6
Thu, Dec 13, 2018 7.2 -2.3 1.8 1.0 89.5 4805.4
Wed, Dec 12, 2018 1.7 -4.5 -0.4 0.2 85.0 2580.3
Tue, Dec 11, 2018 0.3 -1.5 -0.8 0.0 82.4 536.2
Mon, Dec 10, 2018 1.1 -2.2 -0.4 0.0 78.9 1229.5
Sun, Dec 09, 2018 0.7 -6.5 -2.4 0.0 74.6 6537.1
Sat, Dec 08, 2018 -0.3 -5.8 -3.1 0.0 75.4 5673.9
DateTime Avg Temp (°C) Rain (mm) RH (%) Solar Rad (kJ/m2)
Sat, Dec 15, 2018 17:00 3.4 0.0 84.9 15.6
Sat, Dec 15, 2018 16:00 4.0 0.0 82.9 83.6
Sat, Dec 15, 2018 15:00 4.2 0.0 81.3 231.3
Sat, Dec 15, 2018 14:00 4.4 0.0 80.9 368.4
Sat, Dec 15, 2018 13:00 4.3 0.0 81.8 472.7
Sat, Dec 15, 2018 12:00 3.8 0.0 85.0 454.8
Sat, Dec 15, 2018 11:00 3.2 0.0 90.4 342.8
Sat, Dec 15, 2018 10:00 2.8 0.0 99.2 252.9
Sat, Dec 15, 2018 09:00 2.4 0.0 99.9 79.5
Sat, Dec 15, 2018 08:00 2.1 0.0 99.9 6.1
Sat, Dec 15, 2018 07:00 1.9 0.0 99.9 1.8
Sat, Dec 15, 2018 06:00 1.4 0.0 99.9 2.7
Sat, Dec 15, 2018 05:00 0.8 0.0 99.9 2.4
Sat, Dec 15, 2018 04:00 0.8 0.0 99.9 2.1
Sat, Dec 15, 2018 03:00 2.8 0.0 95.3 3.0
Sat, Dec 15, 2018 02:00 4.0 0.0 86.9 2.4
Sat, Dec 15, 2018 01:00 4.5 0.0 84.8 2.7
Sat, Dec 15, 2018 00:00 5.0 0.0 84.0 3.0
Fri, Dec 14, 2018 23:00 4.5 0.0 85.7 2.7
Fri, Dec 14, 2018 22:00 5.0 0.0 82.8 2.4
Fri, Dec 14, 2018 21:00 4.8 0.0 82.8 2.7
Fri, Dec 14, 2018 20:00 4.0 0.0 85.0 2.7
Fri, Dec 14, 2018 19:00 2.9 0.0 88.4 2.1
Fri, Dec 14, 2018 18:00 3.9 0.0 80.7 2.7
Fri, Dec 14, 2018 17:00 6.4 0.0 71.2 35.4
Fri, Dec 14, 2018 16:00 6.9 0.0 69.5 106.8
Fri, Dec 14, 2018 15:00 6.5 0.0 72.6 289.3
Fri, Dec 14, 2018 14:00 5.8 0.0 77.4 216.6
Fri, Dec 14, 2018 13:00 5.0 0.0 82.3 123.1
Fri, Dec 14, 2018 12:00 4.4 0.4 89.2 111.6
Fri, Dec 14, 2018 11:00 4.4 0.8 87.2 62.2
Fri, Dec 14, 2018 10:00 4.8 0.0 78.6 75.1
Fri, Dec 14, 2018 09:00 4.4 0.0 77.3 36.1
Fri, Dec 14, 2018 08:00 4.1 0.0 79.0 3.0
Fri, Dec 14, 2018 07:00 3.7 0.0 79.7 2.4
Fri, Dec 14, 2018 06:00 3.3 0.0 80.4 3.3
Fri, Dec 14, 2018 05:00 2.5 0.0 83.7 2.7
Fri, Dec 14, 2018 04:00 2.4 0.0 84.3 3.0
Fri, Dec 14, 2018 03:00 2.5 0.0 84.2 3.0
Fri, Dec 14, 2018 02:00 2.4 0.0 84.8 3.3
Fri, Dec 14, 2018 01:00 2.4 0.0 85.1 2.4
Fri, Dec 14, 2018 00:00 2.4 0.0 83.7 2.4
Thu, Dec 13, 2018 23:00 2.7 0.0 81.8 3.0
Thu, Dec 13, 2018 22:00 2.7 0.0 81.4 2.4
Thu, Dec 13, 2018 21:00 1.6 0.0 90.3 2.7
Thu, Dec 13, 2018 20:00 0.6 0.0 99.9 2.7
Thu, Dec 13, 2018 19:00 0.8 0.0 99.9 2.4
Thu, Dec 13, 2018 18:00 0.7 0.0 97.5 2.7


asterix Register now to access more data! asterix